sensor_id;sensor_type;location;lat;lon;timestamp;P1;durP1;ratioP1;P2;durP2;ratioP2
12593;SDS011;6362;50.208;9.182;2022-10-16T00:00:31;1.63;;;0.73;;
12593;SDS011;6362;50.208;9.182;2022-10-16T00:02:58;0.93;;;0.60;;
12593;SDS011;6362;50.208;9.182;2022-10-16T00:05:23;1.48;;;0.70;;
12593;SDS011;6362;50.208;9.182;2022-10-16T00:07:49;3.55;;;0.80;;
12593;SDS011;6362;50.208;9.182;2022-10-16T00:10:14;1.90;;;0.80;;
12593;SDS011;6362;50.208;9.182;2022-10-16T00:12:40;2.28;;;0.70;;
12593;SDS011;6362;50.208;9.182;2022-10-16T00:15:05;2.22;;;0.85;;
12593;SDS011;6362;50.208;9.182;2022-10-16T00:17:31;1.55;;;1.00;;
12593;SDS011;6362;50.208;9.182;2022-10-16T00:19:57;2.13;;;0.90;;
12593;SDS011;6362;50.208;9.182;2022-10-16T00:22:23;3.53;;;0.95;;
12593;SDS011;6362;50.208;9.182;2022-10-16T00:24:48;2.38;;;1.17;;
12593;SDS011;6362;50.208;9.182;2022-10-16T00:27:14;2.40;;;0.90;;
12593;SDS011;6362;50.208;9.182;2022-10-16T00:29:39;6.50;;;1.00;;
12593;SDS011;6362;50.208;9.182;2022-10-16T00:32:04;1.42;;;0.90;;
12593;SDS011;6362;50.208;9.182;2022-10-16T00:34:30;2.53;;;1.10;;
12593;SDS011;6362;50.208;9.182;2022-10-16T00:36:55;1.73;;;0.90;;
12593;SDS011;6362;50.208;9.182;2022-10-16T00:39:21;3.33;;;1.00;;
12593;SDS011;6362;50.208;9.182;2022-10-16T00:41:47;3.38;;;0.88;;
12593;SDS011;6362;50.208;9.182;2022-10-16T00:47:08;1.60;;;1.10;;
12593;SDS011;6362;50.208;9.182;2022-10-16T00:49:36;2.78;;;1.38;;
12593;SDS011;6362;50.208;9.182;2022-10-16T00:52:01;1.45;;;0.82;;
12593;SDS011;6362;50.208;9.182;2022-10-16T00:54:28;1.60;;;0.90;;
12593;SDS011;6362;50.208;9.182;2022-10-16T00:56:56;2.08;;;1.17;;
12593;SDS011;6362;50.208;9.182;2022-10-16T00:59:26;3.65;;;1.13;;
12593;SDS011;6362;50.208;9.182;2022-10-16T01:01:54;6.93;;;1.27;;
12593;SDS011;6362;50.208;9.182;2022-10-16T01:04:20;1.95;;;1.20;;
12593;SDS011;6362;50.208;9.182;2022-10-16T01:06:48;4.00;;;1.20;;
12593;SDS011;6362;50.208;9.182;2022-10-16T01:09:31;2.80;;;1.77;;
12593;SDS011;6362;50.208;9.182;2022-10-16T01:12:19;2.75;;;1.30;;
12593;SDS011;6362;50.208;9.182;2022-10-16T01:15:01;2.92;;;1.23;;
12593;SDS011;6362;50.208;9.182;2022-10-16T01:25:44;2.60;;;1.40;;
12593;SDS011;6362;50.208;9.182;2022-10-16T01:28:57;4.20;;;1.30;;
12593;SDS011;6362;50.208;9.182;2022-10-16T01:31:29;4.00;;;1.90;;
12593;SDS011;6362;50.208;9.182;2022-10-16T01:36:57;2.28;;;1.38;;
12593;SDS011;6362;50.208;9.182;2022-10-16T01:39:30;3.95;;;1.63;;
12593;SDS011;6362;50.208;9.182;2022-10-16T01:42:01;2.70;;;1.48;;
12593;SDS011;6362;50.208;9.182;2022-10-16T01:44:33;2.83;;;1.33;;
12593;SDS011;6362;50.208;9.182;2022-10-16T01:47:01;3.03;;;1.30;;
12593;SDS011;6362;50.208;9.182;2022-10-16T01:49:29;2.55;;;1.40;;
12593;SDS011;6362;50.208;9.182;2022-10-16T01:51:59;3.22;;;1.13;;
12593;SDS011;6362;50.208;9.182;2022-10-16T01:54:27;2.78;;;1.30;;
12593;SDS011;6362;50.208;9.182;2022-10-16T01:56:56;2.55;;;0.90;;
12593;SDS011;6362;50.208;9.182;2022-10-16T01:59:24;2.13;;;1.17;;
12593;SDS011;6362;50.208;9.182;2022-10-16T02:01:52;4.40;;;1.10;;
12593;SDS011;6362;50.208;9.182;2022-10-16T02:04:24;2.55;;;1.15;;
12593;SDS011;6362;50.208;9.182;2022-10-16T02:06:57;2.75;;;1.30;;
12593;SDS011;6362;50.208;9.182;2022-10-16T02:09:22;3.58;;;0.90;;
12593;SDS011;6362;50.208;9.182;2022-10-16T02:11:48;2.25;;;0.70;;
12593;SDS011;6362;50.208;9.182;2022-10-16T02:14:16;1.95;;;0.70;;
12593;SDS011;6362;50.208;9.182;2022-10-16T02:16:42;1.90;;;0.63;;
12593;SDS011;6362;50.208;9.182;2022-10-16T02:19:10;0.88;;;0.68;;
12593;SDS011;6362;50.208;9.182;2022-10-16T02:21:42;5.13;;;0.80;;
12593;SDS011;6362;50.208;9.182;2022-10-16T02:24:19;3.25;;;0.68;;
12593;SDS011;6362;50.208;9.182;2022-10-16T02:29:37;1.90;;;0.50;;
12593;SDS011;6362;50.208;9.182;2022-10-16T02:32:05;1.95;;;0.60;;
12593;SDS011;6362;50.208;9.182;2022-10-16T02:34:35;6.93;;;0.73;;
12593;SDS011;6362;50.208;9.182;2022-10-16T02:37:02;1.15;;;0.60;;
12593;SDS011;6362;50.208;9.182;2022-10-16T02:39:30;4.82;;;0.50;;
12593;SDS011;6362;50.208;9.182;2022-10-16T02:41:56;1.05;;;0.60;;
12593;SDS011;6362;50.208;9.182;2022-10-16T02:44:21;1.40;;;0.57;;
12593;SDS011;6362;50.208;9.182;2022-10-16T02:46:47;1.17;;;0.60;;
12593;SDS011;6362;50.208;9.182;2022-10-16T02:49:12;2.88;;;0.60;;
12593;SDS011;6362;50.208;9.182;2022-10-16T02:51:37;1.63;;;0.60;;
12593;SDS011;6362;50.208;9.182;2022-10-16T02:54:03;1.85;;;0.80;;
12593;SDS011;6362;50.208;9.182;2022-10-16T02:56:29;2.08;;;0.63;;
12593;SDS011;6362;50.208;9.182;2022-10-16T02:58:55;0.93;;;0.50;;
12593;SDS011;6362;50.208;9.182;2022-10-16T03:01:21;4.78;;;0.68;;
12593;SDS011;6362;50.208;9.182;2022-10-16T03:03:47;1.77;;;0.47;;
12593;SDS011;6362;50.208;9.182;2022-10-16T03:06:12;2.15;;;0.52;;
12593;SDS011;6362;50.208;9.182;2022-10-16T03:08:37;1.00;;;0.70;;
12593;SDS011;6362;50.208;9.182;2022-10-16T03:11:03;2.25;;;0.60;;
12593;SDS011;6362;50.208;9.182;2022-10-16T03:13:29;2.30;;;0.50;;
12593;SDS011;6362;50.208;9.182;2022-10-16T03:15:55;1.25;;;0.43;;
12593;SDS011;6362;50.208;9.182;2022-10-16T03:18:20;1.67;;;0.63;;
12593;SDS011;6362;50.208;9.182;2022-10-16T03:20:46;1.83;;;0.50;;
12593;SDS011;6362;50.208;9.182;2022-10-16T03:23:11;1.20;;;0.50;;
12593;SDS011;6362;50.208;9.182;2022-10-16T03:25:37;0.73;;;0.50;;
12593;SDS011;6362;50.208;9.182;2022-10-16T03:28:03;0.70;;;0.50;;
12593;SDS011;6362;50.208;9.182;2022-10-16T03:30:28;0.70;;;0.50;;
12593;SDS011;6362;50.208;9.182;2022-10-16T03:32:54;0.75;;;0.57;;
12593;SDS011;6362;50.208;9.182;2022-10-16T03:35:20;0.90;;;0.50;;
12593;SDS011;6362;50.208;9.182;2022-10-16T03:37:46;1.40;;;0.50;;
12593;SDS011;6362;50.208;9.182;2022-10-16T03:40:12;1.27;;;0.50;;
12593;SDS011;6362;50.208;9.182;2022-10-16T03:42:38;1.55;;;0.60;;
12593;SDS011;6362;50.208;9.182;2022-10-16T03:45:03;1.23;;;0.60;;
12593;SDS011;6362;50.208;9.182;2022-10-16T03:47:29;1.15;;;0.55;;
12593;SDS011;6362;50.208;9.182;2022-10-16T03:49:57;2.22;;;0.50;;
12593;SDS011;6362;50.208;9.182;2022-10-16T03:52:22;1.13;;;0.60;;
12593;SDS011;6362;50.208;9.182;2022-10-16T03:54:48;1.63;;;0.70;;
12593;SDS011;6362;50.208;9.182;2022-10-16T03:57:13;3.90;;;0.60;;
12593;SDS011;6362;50.208;9.182;2022-10-16T03:59:39;2.35;;;0.70;;
12593;SDS011;6362;50.208;9.182;2022-10-16T04:02:04;1.33;;;0.52;;
12593;SDS011;6362;50.208;9.182;2022-10-16T04:04:29;1.08;;;0.60;;
12593;SDS011;6362;50.208;9.182;2022-10-16T04:06:55;1.10;;;0.50;;
12593;SDS011;6362;50.208;9.182;2022-10-16T04:09:20;2.53;;;0.63;;
12593;SDS011;6362;50.208;9.182;2022-10-16T04:11:46;1.00;;;0.70;;
12593;SDS011;6362;50.208;9.182;2022-10-16T04:14:11;2.42;;;0.70;;
12593;SDS011;6362;50.208;9.182;2022-10-16T04:16:36;2.42;;;0.80;;
12593;SDS011;6362;50.208;9.182;2022-10-16T04:19:02;1.98;;;0.70;;
12593;SDS011;6362;50.208;9.182;2022-10-16T04:21:27;1.60;;;0.60;;
12593;SDS011;6362;50.208;9.182;2022-10-16T04:23:53;2.55;;;0.60;;
12593;SDS011;6362;50.208;9.182;2022-10-16T04:26:18;2.58;;;0.80;;
12593;SDS011;6362;50.208;9.182;2022-10-16T04:28:44;2.45;;;0.70;;
12593;SDS011;6362;50.208;9.182;2022-10-16T04:31:09;3.38;;;0.80;;
12593;SDS011;6362;50.208;9.182;2022-10-16T04:33:34;3.22;;;0.80;;
12593;SDS011;6362;50.208;9.182;2022-10-16T04:36:00;3.03;;;0.70;;
12593;SDS011;6362;50.208;9.182;2022-10-16T04:38:27;2.83;;;0.60;;
12593;SDS011;6362;50.208;9.182;2022-10-16T04:40:53;2.85;;;0.80;;
12593;SDS011;6362;50.208;9.182;2022-10-16T04:43:18;4.20;;;0.82;;
12593;SDS011;6362;50.208;9.182;2022-10-16T04:45:44;2.65;;;1.05;;
12593;SDS011;6362;50.208;9.182;2022-10-16T04:48:10;5.72;;;0.80;;
12593;SDS011;6362;50.208;9.182;2022-10-16T04:50:35;3.58;;;0.80;;
12593;SDS011;6362;50.208;9.182;2022-10-16T04:53:01;3.63;;;0.80;;
12593;SDS011;6362;50.208;9.182;2022-10-16T04:55:26;1.77;;;0.70;;
12593;SDS011;6362;50.208;9.182;2022-10-16T04:57:52;0.93;;;0.60;;
12593;SDS011;6362;50.208;9.182;2022-10-16T05:00:17;2.40;;;0.90;;
12593;SDS011;6362;50.208;9.182;2022-10-16T05:02:43;1.45;;;0.80;;
12593;SDS011;6362;50.208;9.182;2022-10-16T05:05:08;1.40;;;0.80;;
12593;SDS011;6362;50.208;9.182;2022-10-16T05:07:34;1.10;;;0.80;;
12593;SDS011;6362;50.208;9.182;2022-10-16T05:09:59;1.65;;;1.10;;
12593;SDS011;6362;50.208;9.182;2022-10-16T05:12:25;3.03;;;0.90;;
12593;SDS011;6362;50.208;9.182;2022-10-16T05:14:50;2.05;;;0.90;;
12593;SDS011;6362;50.208;9.182;2022-10-16T05:17:15;1.75;;;0.88;;
12593;SDS011;6362;50.208;9.182;2022-10-16T05:19:41;2.47;;;0.95;;
12593;SDS011;6362;50.208;9.182;2022-10-16T05:22:06;4.75;;;1.13;;
12593;SDS011;6362;50.208;9.182;2022-10-16T05:24:32;3.22;;;0.98;;
12593;SDS011;6362;50.208;9.182;2022-10-16T05:26:58;3.78;;;1.20;;
12593;SDS011;6362;50.208;9.182;2022-10-16T05:29:23;3.25;;;1.00;;
12593;SDS011;6362;50.208;9.182;2022-10-16T05:31:52;1.83;;;1.10;;
12593;SDS011;6362;50.208;9.182;2022-10-16T05:34:18;2.10;;;0.90;;
12593;SDS011;6362;50.208;9.182;2022-10-16T05:36:44;4.72;;;1.15;;
12593;SDS011;6362;50.208;9.182;2022-10-16T05:39:10;2.60;;;1.00;;
12593;SDS011;6362;50.208;9.182;2022-10-16T05:41:35;4.07;;;1.52;;
12593;SDS011;6362;50.208;9.182;2022-10-16T05:44:03;3.72;;;1.50;;
12593;SDS011;6362;50.208;9.182;2022-10-16T05:46:29;3.08;;;1.30;;
12593;SDS011;6362;50.208;9.182;2022-10-16T05:48:55;3.35;;;1.40;;
12593;SDS011;6362;50.208;9.182;2022-10-16T05:51:20;3.10;;;1.20;;
12593;SDS011;6362;50.208;9.182;2022-10-16T05:53:45;2.47;;;1.33;;
12593;SDS011;6362;50.208;9.182;2022-10-16T05:56:11;2.00;;;1.35;;
12593;SDS011;6362;50.208;9.182;2022-10-16T05:58:38;2.88;;;1.40;;
12593;SDS011;6362;50.208;9.182;2022-10-16T06:01:12;2.20;;;1.40;;
12593;SDS011;6362;50.208;9.182;2022-10-16T06:03:39;2.58;;;1.40;;
12593;SDS011;6362;50.208;9.182;2022-10-16T06:06:09;4.07;;;1.50;;
12593;SDS011;6362;50.208;9.182;2022-10-16T06:08:34;1.80;;;1.17;;
12593;SDS011;6362;50.208;9.182;2022-10-16T06:11:00;3.05;;;1.60;;
12593;SDS011;6362;50.208;9.182;2022-10-16T06:13:29;2.30;;;1.50;;
12593;SDS011;6362;50.208;9.182;2022-10-16T06:15:56;2.80;;;1.40;;
12593;SDS011;6362;50.208;9.182;2022-10-16T06:18:23;3.20;;;1.50;;
12593;SDS011;6362;50.208;9.182;2022-10-16T06:20:49;3.13;;;1.95;;
12593;SDS011;6362;50.208;9.182;2022-10-16T06:23:14;3.15;;;1.70;;
12593;SDS011;6362;50.208;9.182;2022-10-16T06:25:40;4.38;;;1.60;;
12593;SDS011;6362;50.208;9.182;2022-10-16T06:28:05;2.90;;;1.20;;
12593;SDS011;6362;50.208;9.182;2022-10-16T06:30:30;2.95;;;1.50;;
12593;SDS011;6362;50.208;9.182;2022-10-16T06:32:56;2.90;;;1.40;;
12593;SDS011;6362;50.208;9.182;2022-10-16T06:35:22;2.30;;;1.58;;
12593;SDS011;6362;50.208;9.182;2022-10-16T06:37:47;3.08;;;1.60;;
12593;SDS011;6362;50.208;9.182;2022-10-16T06:40:12;3.85;;;2.15;;
12593;SDS011;6362;50.208;9.182;2022-10-16T06:42:39;4.15;;;2.25;;
12593;SDS011;6362;50.208;9.182;2022-10-16T06:45:05;4.60;;;2.00;;
12593;SDS011;6362;50.208;9.182;2022-10-16T06:47:31;2.50;;;1.90;;
12593;SDS011;6362;50.208;9.182;2022-10-16T06:49:56;4.43;;;2.08;;
12593;SDS011;6362;50.208;9.182;2022-10-16T06:52:21;3.50;;;1.90;;
12593;SDS011;6362;50.208;9.182;2022-10-16T06:54:47;7.32;;;2.17;;
12593;SDS011;6362;50.208;9.182;2022-10-16T06:57:12;3.67;;;1.92;;
12593;SDS011;6362;50.208;9.182;2022-10-16T06:59:38;2.50;;;1.80;;
12593;SDS011;6362;50.208;9.182;2022-10-16T07:02:03;3.20;;;1.60;;
12593;SDS011;6362;50.208;9.182;2022-10-16T07:04:28;2.92;;;1.75;;
12593;SDS011;6362;50.208;9.182;2022-10-16T07:06:54;4.53;;;1.90;;
12593;SDS011;6362;50.208;9.182;2022-10-16T07:09:19;2.67;;;1.52;;
12593;SDS011;6362;50.208;9.182;2022-10-16T07:11:45;3.28;;;1.30;;
12593;SDS011;6362;50.208;9.182;2022-10-16T07:14:15;2.13;;;1.20;;
12593;SDS011;6362;50.208;9.182;2022-10-16T07:16:42;3.58;;;1.30;;
12593;SDS011;6362;50.208;9.182;2022-10-16T07:19:08;3.05;;;1.42;;
12593;SDS011;6362;50.208;9.182;2022-10-16T07:21:34;3.22;;;1.23;;
12593;SDS011;6362;50.208;9.182;2022-10-16T07:24:04;3.10;;;1.13;;
12593;SDS011;6362;50.208;9.182;2022-10-16T07:26:32;5.15;;;1.17;;
12593;SDS011;6362;50.208;9.182;2022-10-16T07:28:59;3.13;;;1.30;;
12593;SDS011;6362;50.208;9.182;2022-10-16T07:31:25;2.03;;;1.00;;
12593;SDS011;6362;50.208;9.182;2022-10-16T07:33:51;1.80;;;1.02;;
12593;SDS011;6362;50.208;9.182;2022-10-16T07:36:18;1.58;;;0.98;;
12593;SDS011;6362;50.208;9.182;2022-10-16T07:38:46;4.95;;;1.10;;
12593;SDS011;6362;50.208;9.182;2022-10-16T07:41:13;3.53;;;1.05;;
12593;SDS011;6362;50.208;9.182;2022-10-16T07:43:40;3.53;;;1.00;;
12593;SDS011;6362;50.208;9.182;2022-10-16T07:46:10;4.13;;;1.05;;
12593;SDS011;6362;50.208;9.182;2022-10-16T07:48:35;2.40;;;1.00;;
12593;SDS011;6362;50.208;9.182;2022-10-16T07:51:02;2.55;;;1.20;;
12593;SDS011;6362;50.208;9.182;2022-10-16T07:53:29;2.00;;;1.00;;
12593;SDS011;6362;50.208;9.182;2022-10-16T07:55:58;2.45;;;1.10;;
12593;SDS011;6362;50.208;9.182;2022-10-16T07:58:25;2.33;;;1.10;;
12593;SDS011;6362;50.208;9.182;2022-10-16T08:00:51;2.17;;;0.90;;
12593;SDS011;6362;50.208;9.182;2022-10-16T08:03:16;3.10;;;1.00;;
12593;SDS011;6362;50.208;9.182;2022-10-16T08:05:41;4.22;;;0.82;;
12593;SDS011;6362;50.208;9.182;2022-10-16T08:08:10;3.47;;;0.93;;
12593;SDS011;6362;50.208;9.182;2022-10-16T08:10:38;2.80;;;1.05;;
12593;SDS011;6362;50.208;9.182;2022-10-16T08:13:03;5.72;;;0.98;;
12593;SDS011;6362;50.208;9.182;2022-10-16T08:15:29;3.25;;;1.00;;
12593;SDS011;6362;50.208;9.182;2022-10-16T08:17:56;3.63;;;1.00;;
12593;SDS011;6362;50.208;9.182;2022-10-16T08:20:21;3.78;;;1.02;;
12593;SDS011;6362;50.208;9.182;2022-10-16T08:22:47;2.42;;;1.05;;
12593;SDS011;6362;50.208;9.182;2022-10-16T08:25:12;1.95;;;0.98;;
12593;SDS011;6362;50.208;9.182;2022-10-16T08:27:38;4.07;;;1.25;;
12593;SDS011;6362;50.208;9.182;2022-10-16T08:30:03;2.70;;;0.80;;
12593;SDS011;6362;50.208;9.182;2022-10-16T08:32:29;1.65;;;1.00;;
12593;SDS011;6362;50.208;9.182;2022-10-16T08:34:54;6.47;;;1.00;;
12593;SDS011;6362;50.208;9.182;2022-10-16T08:37:19;4.95;;;1.10;;
12593;SDS011;6362;50.208;9.182;2022-10-16T08:39:45;3.17;;;1.10;;
12593;SDS011;6362;50.208;9.182;2022-10-16T08:50:14;1.83;;;1.00;;
12593;SDS011;6362;50.208;9.182;2022-10-16T08:52:46;3.75;;;1.10;;
12593;SDS011;6362;50.208;9.182;2022-10-16T08:57:52;3.92;;;1.25;;
12593;SDS011;6362;50.208;9.182;2022-10-16T09:00:17;2.28;;;1.10;;
12593;SDS011;6362;50.208;9.182;2022-10-16T09:02:45;3.60;;;1.00;;
12593;SDS011;6362;50.208;9.182;2022-10-16T09:08:09;2.20;;;1.15;;
12593;SDS011;6362;50.208;9.182;2022-10-16T09:10:56;2.83;;;1.20;;
12593;SDS011;6362;50.208;9.182;2022-10-16T09:13:31;2.30;;;1.20;;
12593;SDS011;6362;50.208;9.182;2022-10-16T09:19:30;3.17;;;1.35;;
12593;SDS011;6362;50.208;9.182;2022-10-16T09:21:56;7.05;;;2.13;;
12593;SDS011;6362;50.208;9.182;2022-10-16T09:24:25;3.25;;;1.75;;
12593;SDS011;6362;50.208;9.182;2022-10-16T09:26:51;4.53;;;2.10;;
12593;SDS011;6362;50.208;9.182;2022-10-16T09:29:17;3.55;;;1.90;;
12593;SDS011;6362;50.208;9.182;2022-10-16T09:31:50;4.15;;;2.10;;
12593;SDS011;6362;50.208;9.182;2022-10-16T09:34:20;5.47;;;2.25;;
12593;SDS011;6362;50.208;9.182;2022-10-16T09:36:59;7.15;;;2.33;;
12593;SDS011;6362;50.208;9.182;2022-10-16T09:39:28;3.72;;;2.22;;
12593;SDS011;6362;50.208;9.182;2022-10-16T09:41:53;3.65;;;1.80;;
12593;SDS011;6362;50.208;9.182;2022-10-16T09:44:22;2.97;;;1.60;;
12593;SDS011;6362;50.208;9.182;2022-10-16T09:47:00;5.43;;;1.80;;
12593;SDS011;6362;50.208;9.182;2022-10-16T09:49:30;3.05;;;1.88;;
12593;SDS011;6362;50.208;9.182;2022-10-16T09:52:09;4.88;;;1.92;;
12593;SDS011;6362;50.208;9.182;2022-10-16T09:54:37;7.05;;;2.72;;
12593;SDS011;6362;50.208;9.182;2022-10-16T09:57:14;3.03;;;1.85;;
12593;SDS011;6362;50.208;9.182;2022-10-16T09:59:49;4.18;;;2.35;;
12593;SDS011;6362;50.208;9.182;2022-10-16T10:02:29;3.72;;;2.10;;
12593;SDS011;6362;50.208;9.182;2022-10-16T10:04:59;3.90;;;2.20;;
12593;SDS011;6362;50.208;9.182;2022-10-16T10:07:30;4.88;;;2.70;;
12593;SDS011;6362;50.208;9.182;2022-10-16T10:09:59;3.90;;;2.60;;
12593;SDS011;6362;50.208;9.182;2022-10-16T10:12:29;5.10;;;2.83;;
12593;SDS011;6362;50.208;9.182;2022-10-16T10:15:06;4.45;;;1.88;;
12593;SDS011;6362;50.208;9.182;2022-10-16T10:17:46;5.40;;;2.30;;
12593;SDS011;6362;50.208;9.182;2022-10-16T10:20:21;5.00;;;2.05;;
12593;SDS011;6362;50.208;9.182;2022-10-16T10:22:57;3.47;;;2.20;;
12593;SDS011;6362;50.208;9.182;2022-10-16T10:30:49;4.50;;;1.85;;
12593;SDS011;6362;50.208;9.182;2022-10-16T10:33:58;4.95;;;1.58;;
12593;SDS011;6362;50.208;9.182;2022-10-16T10:36:38;6.00;;;1.42;;
12593;SDS011;6362;50.208;9.182;2022-10-16T10:39:13;6.35;;;1.90;;
12593;SDS011;6362;50.208;9.182;2022-10-16T10:51:11;5.80;;;1.80;;
12593;SDS011;6362;50.208;9.182;2022-10-16T11:07:34;5.32;;;1.98;;
12593;SDS011;6362;50.208;9.182;2022-10-16T11:10:24;6.20;;;1.88;;
12593;SDS011;6362;50.208;9.182;2022-10-16T11:12:55;6.32;;;1.80;;
12593;SDS011;6362;50.208;9.182;2022-10-16T11:15:31;5.43;;;2.13;;
12593;SDS011;6362;50.208;9.182;2022-10-16T11:18:06;5.72;;;1.73;;
12593;SDS011;6362;50.208;9.182;2022-10-16T11:20:57;5.82;;;1.60;;
12593;SDS011;6362;50.208;9.182;2022-10-16T11:23:36;7.93;;;1.90;;
12593;SDS011;6362;50.208;9.182;2022-10-16T11:26:04;4.57;;;1.75;;
12593;SDS011;6362;50.208;9.182;2022-10-16T11:28:45;3.33;;;1.60;;
12593;SDS011;6362;50.208;9.182;2022-10-16T11:33:41;5.03;;;2.05;;
12593;SDS011;6362;50.208;9.182;2022-10-16T11:47:13;4.82;;;1.75;;
12593;SDS011;6362;50.208;9.182;2022-10-16T11:49:52;3.30;;;1.60;;
12593;SDS011;6362;50.208;9.182;2022-10-16T11:52:25;3.80;;;2.13;;
12593;SDS011;6362;50.208;9.182;2022-10-16T11:55:02;12.85;;;1.98;;
12593;SDS011;6362;50.208;9.182;2022-10-16T11:57:42;4.65;;;1.83;;
12593;SDS011;6362;50.208;9.182;2022-10-16T12:00:24;5.97;;;1.60;;
12593;SDS011;6362;50.208;9.182;2022-10-16T12:08:33;4.82;;;1.50;;
12593;SDS011;6362;50.208;9.182;2022-10-16T12:14:04;3.80;;;2.00;;
12593;SDS011;6362;50.208;9.182;2022-10-16T12:16:32;3.85;;;1.90;;
12593;SDS011;6362;50.208;9.182;2022-10-16T12:19:11;6.15;;;1.83;;
12593;SDS011;6362;50.208;9.182;2022-10-16T12:21:38;3.63;;;1.70;;
12593;SDS011;6362;50.208;9.182;2022-10-16T12:24:03;5.00;;;2.00;;
12593;SDS011;6362;50.208;9.182;2022-10-16T12:26:33;3.85;;;1.60;;
12593;SDS011;6362;50.208;9.182;2022-10-16T12:32:06;5.22;;;1.60;;
12593;SDS011;6362;50.208;9.182;2022-10-16T12:34:53;5.40;;;1.65;;
12593;SDS011;6362;50.208;9.182;2022-10-16T12:37:21;3.38;;;1.40;;
12593;SDS011;6362;50.208;9.182;2022-10-16T12:39:48;3.05;;;1.50;;
12593;SDS011;6362;50.208;9.182;2022-10-16T12:44:56;5.33;;;1.73;;
12593;SDS011;6362;50.208;9.182;2022-10-16T12:47:35;4.70;;;1.63;;
12593;SDS011;6362;50.208;9.182;2022-10-16T12:50:03;2.80;;;1.17;;
12593;SDS011;6362;50.208;9.182;2022-10-16T12:52:47;3.10;;;0.98;;
12593;SDS011;6362;50.208;9.182;2022-10-16T12:55:17;1.98;;;0.80;;
12593;SDS011;6362;50.208;9.182;2022-10-16T13:20:06;2.65;;;0.75;;
12593;SDS011;6362;50.208;9.182;2022-10-16T13:22:40;2.78;;;0.70;;
12593;SDS011;6362;50.208;9.182;2022-10-16T13:28:01;2.53;;;0.70;;
12593;SDS011;6362;50.208;9.182;2022-10-16T13:30:39;2.67;;;0.70;;
12593;SDS011;6362;50.208;9.182;2022-10-16T13:35:45;3.35;;;0.80;;
12593;SDS011;6362;50.208;9.182;2022-10-16T13:38:14;4.45;;;0.70;;
12593;SDS011;6362;50.208;9.182;2022-10-16T13:40:48;1.83;;;0.70;;
12593;SDS011;6362;50.208;9.182;2022-10-16T13:43:18;1.77;;;0.80;;
12593;SDS011;6362;50.208;9.182;2022-10-16T13:45:54;1.85;;;0.60;;
12593;SDS011;6362;50.208;9.182;2022-10-16T13:48:21;1.05;;;0.60;;
12593;SDS011;6362;50.208;9.182;2022-10-16T13:50:46;2.47;;;0.70;;
12593;SDS011;6362;50.208;9.182;2022-10-16T13:53:23;2.38;;;0.65;;
12593;SDS011;6362;50.208;9.182;2022-10-16T13:55:49;3.60;;;0.70;;
12593;SDS011;6362;50.208;9.182;2022-10-16T13:58:14;2.13;;;0.82;;
12593;SDS011;6362;50.208;9.182;2022-10-16T14:00:41;1.63;;;0.90;;
12593;SDS011;6362;50.208;9.182;2022-10-16T14:03:24;5.70;;;1.05;;
12593;SDS011;6362;50.208;9.182;2022-10-16T14:05:57;3.42;;;0.80;;
12593;SDS011;6362;50.208;9.182;2022-10-16T14:08:25;1.13;;;0.80;;
12593;SDS011;6362;50.208;9.182;2022-10-16T14:10:54;3.58;;;1.00;;
12593;SDS011;6362;50.208;9.182;2022-10-16T14:13:29;1.27;;;0.75;;
12593;SDS011;6362;50.208;9.182;2022-10-16T14:15:59;3.00;;;0.82;;
12593;SDS011;6362;50.208;9.182;2022-10-16T14:18:30;2.33;;;1.00;;
12593;SDS011;6362;50.208;9.182;2022-10-16T14:21:02;1.88;;;0.90;;
12593;SDS011;6362;50.208;9.182;2022-10-16T14:23:30;1.55;;;0.80;;
12593;SDS011;6362;50.208;9.182;2022-10-16T14:28:34;1.92;;;0.80;;
12593;SDS011;6362;50.208;9.182;2022-10-16T14:31:02;2.40;;;0.93;;
12593;SDS011;6362;50.208;9.182;2022-10-16T14:33:45;1.77;;;0.90;;
12593;SDS011;6362;50.208;9.182;2022-10-16T14:38:38;4.03;;;0.90;;
12593;SDS011;6362;50.208;9.182;2022-10-16T14:41:05;2.55;;;0.90;;
12593;SDS011;6362;50.208;9.182;2022-10-16T14:46:12;2.25;;;0.88;;
12593;SDS011;6362;50.208;9.182;2022-10-16T14:48:42;2.28;;;0.90;;
12593;SDS011;6362;50.208;9.182;2022-10-16T14:51:15;2.75;;;0.80;;
12593;SDS011;6362;50.208;9.182;2022-10-16T14:53:41;3.90;;;1.10;;
12593;SDS011;6362;50.208;9.182;2022-10-16T14:56:07;6.82;;;0.85;;
12593;SDS011;6362;50.208;9.182;2022-10-16T14:58:39;3.20;;;1.10;;
12593;SDS011;6362;50.208;9.182;2022-10-16T15:01:04;10.70;;;2.75;;
12593;SDS011;6362;50.208;9.182;2022-10-16T15:03:31;23.35;;;6.88;;
12593;SDS011;6362;50.208;9.182;2022-10-16T15:05:57;13.27;;;6.53;;
12593;SDS011;6362;50.208;9.182;2022-10-16T15:08:22;13.15;;;5.97;;
12593;SDS011;6362;50.208;9.182;2022-10-16T15:10:48;14.43;;;5.85;;
12593;SDS011;6362;50.208;9.182;2022-10-16T15:13:13;11.98;;;5.45;;
12593;SDS011;6362;50.208;9.182;2022-10-16T15:15:45;15.23;;;6.90;;
12593;SDS011;6362;50.208;9.182;2022-10-16T15:18:12;10.50;;;3.58;;
12593;SDS011;6362;50.208;9.182;2022-10-16T15:20:40;5.57;;;1.38;;
12593;SDS011;6362;50.208;9.182;2022-10-16T15:23:09;5.00;;;1.20;;
12593;SDS011;6362;50.208;9.182;2022-10-16T15:25:41;5.28;;;1.23;;
12593;SDS011;6362;50.208;9.182;2022-10-16T15:28:09;2.72;;;1.10;;
12593;SDS011;6362;50.208;9.182;2022-10-16T15:30:36;2.17;;;0.90;;
12593;SDS011;6362;50.208;9.182;2022-10-16T15:33:02;4.32;;;1.00;;
12593;SDS011;6362;50.208;9.182;2022-10-16T15:35:29;2.30;;;1.20;;
12593;SDS011;6362;50.208;9.182;2022-10-16T15:37:54;5.00;;;1.00;;
12593;SDS011;6362;50.208;9.182;2022-10-16T15:40:20;1.70;;;1.00;;
12593;SDS011;6362;50.208;9.182;2022-10-16T15:42:47;3.63;;;1.00;;
12593;SDS011;6362;50.208;9.182;2022-10-16T15:45:14;5.03;;;1.20;;
12593;SDS011;6362;50.208;9.182;2022-10-16T15:47:40;4.43;;;1.10;;
12593;SDS011;6362;50.208;9.182;2022-10-16T15:50:06;2.47;;;1.20;;
12593;SDS011;6362;50.208;9.182;2022-10-16T15:52:34;2.53;;;0.82;;
12593;SDS011;6362;50.208;9.182;2022-10-16T15:54:59;2.58;;;1.00;;
12593;SDS011;6362;50.208;9.182;2022-10-16T15:57:25;4.68;;;1.25;;
12593;SDS011;6362;50.208;9.182;2022-10-16T15:59:53;3.65;;;1.00;;
12593;SDS011;6362;50.208;9.182;2022-10-16T16:02:18;2.15;;;1.05;;
12593;SDS011;6362;50.208;9.182;2022-10-16T16:04:44;4.18;;;1.13;;
12593;SDS011;6362;50.208;9.182;2022-10-16T16:07:09;7.70;;;1.73;;
12593;SDS011;6362;50.208;9.182;2022-10-16T16:09:35;7.03;;;1.40;;
12593;SDS011;6362;50.208;9.182;2022-10-16T16:12:00;8.80;;;1.45;;
12593;SDS011;6362;50.208;9.182;2022-10-16T16:14:26;6.18;;;1.95;;
12593;SDS011;6362;50.208;9.182;2022-10-16T16:16:53;9.15;;;2.30;;
12593;SDS011;6362;50.208;9.182;2022-10-16T16:19:19;9.13;;;2.60;;
12593;SDS011;6362;50.208;9.182;2022-10-16T16:21:46;9.20;;;3.30;;
12593;SDS011;6362;50.208;9.182;2022-10-16T16:24:12;6.57;;;2.72;;
12593;SDS011;6362;50.208;9.182;2022-10-16T16:26:37;5.65;;;2.08;;
12593;SDS011;6362;50.208;9.182;2022-10-16T16:29:05;2.92;;;1.70;;
12593;SDS011;6362;50.208;9.182;2022-10-16T16:31:31;3.40;;;1.40;;
12593;SDS011;6362;50.208;9.182;2022-10-16T16:33:57;4.85;;;1.60;;
12593;SDS011;6362;50.208;9.182;2022-10-16T16:36:23;3.47;;;1.83;;
12593;SDS011;6362;50.208;9.182;2022-10-16T16:38:50;7.97;;;1.55;;
12593;SDS011;6362;50.208;9.182;2022-10-16T16:41:17;3.70;;;1.63;;
12593;SDS011;6362;50.208;9.182;2022-10-16T16:43:45;2.25;;;1.10;;
12593;SDS011;6362;50.208;9.182;2022-10-16T16:46:12;2.85;;;1.27;;
12593;SDS011;6362;50.208;9.182;2022-10-16T16:48:38;3.88;;;1.42;;
12593;SDS011;6362;50.208;9.182;2022-10-16T16:51:07;4.25;;;1.40;;
12593;SDS011;6362;50.208;9.182;2022-10-16T16:53:44;8.82;;;1.90;;
12593;SDS011;6362;50.208;9.182;2022-10-16T16:56:11;3.80;;;1.75;;
12593;SDS011;6362;50.208;9.182;2022-10-16T16:58:36;5.88;;;1.63;;
12593;SDS011;6362;50.208;9.182;2022-10-16T17:01:02;4.32;;;1.60;;
12593;SDS011;6362;50.208;9.182;2022-10-16T17:03:28;4.60;;;1.65;;
12593;SDS011;6362;50.208;9.182;2022-10-16T17:06:05;6.47;;;1.90;;
12593;SDS011;6362;50.208;9.182;2022-10-16T17:08:32;5.15;;;1.98;;
12593;SDS011;6362;50.208;9.182;2022-10-16T17:10:59;3.38;;;1.60;;
12593;SDS011;6362;50.208;9.182;2022-10-16T17:13:25;3.75;;;2.00;;